sensor_id;sensor_type;location;lat;lon;timestamp;P1;durP1;ratioP1;P2;durP2;ratioP2
26014;SDS011;13793;55.388;37.844;2024-03-23T00:51:45;56.53;;;30.67;;
26014;SDS011;13793;55.388;37.844;2024-03-23T00:54:15;57.17;;;30.37;;
26014;SDS011;13793;55.388;37.844;2024-03-23T00:56:46;54.83;;;29.67;;
26014;SDS011;13793;55.388;37.844;2024-03-23T00:59:17;58.63;;;30.00;;
26014;SDS011;13793;55.388;37.844;2024-03-23T01:01:47;55.37;;;29.53;;
26014;SDS011;13793;55.388;37.844;2024-03-23T01:04:18;56.40;;;30.00;;
26014;SDS011;13793;55.388;37.844;2024-03-23T01:06:49;58.07;;;30.67;;
26014;SDS011;13793;55.388;37.844;2024-03-23T01:09:20;53.00;;;29.17;;
26014;SDS011;13793;55.388;37.844;2024-03-23T01:11:51;51.90;;;28.50;;
26014;SDS011;13793;55.388;37.844;2024-03-23T01:14:22;54.53;;;29.67;;
26014;SDS011;13793;55.388;37.844;2024-03-23T01:16:53;51.67;;;28.23;;
26014;SDS011;13793;55.388;37.844;2024-03-23T01:19:23;57.73;;;30.73;;
26014;SDS011;13793;55.388;37.844;2024-03-23T01:21:54;54.33;;;29.30;;
26014;SDS011;13793;55.388;37.844;2024-03-23T01:24:24;56.90;;;28.77;;
26014;SDS011;13793;55.388;37.844;2024-03-23T01:26:55;54.47;;;29.97;;
26014;SDS011;13793;55.388;37.844;2024-03-23T01:29:26;54.97;;;29.40;;
26014;SDS011;13793;55.388;37.844;2024-03-23T01:31:58;54.03;;;29.43;;
26014;SDS011;13793;55.388;37.844;2024-03-23T01:34:28;55.73;;;29.30;;
26014;SDS011;13793;55.388;37.844;2024-03-23T01:36:59;56.57;;;30.27;;
26014;SDS011;13793;55.388;37.844;2024-03-23T01:39:30;53.93;;;29.23;;
26014;SDS011;13793;55.388;37.844;2024-03-23T01:42:00;55.67;;;30.57;;
26014;SDS011;13793;55.388;37.844;2024-03-23T01:44:31;54.13;;;29.80;;
26014;SDS011;13793;55.388;37.844;2024-03-23T01:47:02;59.53;;;29.70;;
26014;SDS011;13793;55.388;37.844;2024-03-23T01:49:33;55.33;;;29.63;;
26014;SDS011;13793;55.388;37.844;2024-03-23T01:52:04;53.30;;;29.27;;
26014;SDS011;13793;55.388;37.844;2024-03-23T01:54:35;55.33;;;29.83;;
26014;SDS011;13793;55.388;37.844;2024-03-23T01:57:06;56.10;;;29.03;;
26014;SDS011;13793;55.388;37.844;2024-03-23T01:59:37;57.47;;;29.73;;
26014;SDS011;13793;55.388;37.844;2024-03-23T02:02:10;56.20;;;29.50;;
26014;SDS011;13793;55.388;37.844;2024-03-23T02:04:40;55.00;;;29.90;;
26014;SDS011;13793;55.388;37.844;2024-03-23T02:07:12;56.40;;;29.23;;
26014;SDS011;13793;55.388;37.844;2024-03-23T02:09:43;54.63;;;29.97;;
26014;SDS011;13793;55.388;37.844;2024-03-23T02:12:13;60.13;;;30.80;;
26014;SDS011;13793;55.388;37.844;2024-03-23T02:14:45;55.83;;;29.37;;
26014;SDS011;13793;55.388;37.844;2024-03-23T02:17:17;55.03;;;29.77;;
26014;SDS011;13793;55.388;37.844;2024-03-23T02:19:48;54.03;;;28.90;;
26014;SDS011;13793;55.388;37.844;2024-03-23T02:22:19;53.53;;;27.80;;
26014;SDS011;13793;55.388;37.844;2024-03-23T02:24:50;51.03;;;28.40;;
26014;SDS011;13793;55.388;37.844;2024-03-23T02:27:21;51.00;;;27.43;;
26014;SDS011;13793;55.388;37.844;2024-03-23T02:29:52;54.23;;;28.93;;
26014;SDS011;13793;55.388;37.844;2024-03-23T02:32:23;54.47;;;28.60;;
26014;SDS011;13793;55.388;37.844;2024-03-23T02:34:54;54.27;;;29.60;;
26014;SDS011;13793;55.388;37.844;2024-03-23T02:37:24;57.63;;;29.47;;
26014;SDS011;13793;55.388;37.844;2024-03-23T02:39:56;53.97;;;29.40;;
26014;SDS011;13793;55.388;37.844;2024-03-23T02:42:27;50.83;;;27.83;;
26014;SDS011;13793;55.388;37.844;2024-03-23T02:44:58;50.57;;;26.90;;
26014;SDS011;13793;55.388;37.844;2024-03-23T02:47:30;53.43;;;29.07;;
26014;SDS011;13793;55.388;37.844;2024-03-23T02:50:01;50.27;;;28.37;;
26014;SDS011;13793;55.388;37.844;2024-03-23T02:52:32;53.13;;;28.93;;
26014;SDS011;13793;55.388;37.844;2024-03-23T02:55:04;50.27;;;28.40;;
26014;SDS011;13793;55.388;37.844;2024-03-23T02:57:35;54.23;;;28.67;;
26014;SDS011;13793;55.388;37.844;2024-03-23T03:00:06;50.17;;;28.53;;
26014;SDS011;13793;55.388;37.844;2024-03-23T03:02:39;49.10;;;28.07;;
26014;SDS011;13793;55.388;37.844;2024-03-23T03:05:10;54.00;;;29.33;;
26014;SDS011;13793;55.388;37.844;2024-03-23T03:07:42;49.03;;;28.10;;
26014;SDS011;13793;55.388;37.844;2024-03-23T03:10:13;49.73;;;28.77;;
26014;SDS011;13793;55.388;37.844;2024-03-23T03:12:44;58.67;;;29.73;;
26014;SDS011;13793;55.388;37.844;2024-03-23T03:15:15;49.07;;;28.63;;
26014;SDS011;13793;55.388;37.844;2024-03-23T03:17:47;51.73;;;29.00;;
26014;SDS011;13793;55.388;37.844;2024-03-23T03:20:17;52.53;;;28.33;;
26014;SDS011;13793;55.388;37.844;2024-03-23T03:22:50;55.53;;;29.27;;
26014;SDS011;13793;55.388;37.844;2024-03-23T03:25:22;50.27;;;28.20;;
26014;SDS011;13793;55.388;37.844;2024-03-23T03:27:52;51.03;;;28.50;;
26014;SDS011;13793;55.388;37.844;2024-03-23T03:30:23;50.37;;;27.83;;
26014;SDS011;13793;55.388;37.844;2024-03-23T03:32:54;49.93;;;28.37;;
26014;SDS011;13793;55.388;37.844;2024-03-23T03:35:25;52.33;;;27.87;;
26014;SDS011;13793;55.388;37.844;2024-03-23T03:37:56;52.53;;;28.37;;
26014;SDS011;13793;55.388;37.844;2024-03-23T03:40:27;47.90;;;28.10;;
26014;SDS011;13793;55.388;37.844;2024-03-23T03:43:02;50.67;;;27.90;;
26014;SDS011;13793;55.388;37.844;2024-03-23T03:45:33;51.53;;;27.37;;
26014;SDS011;13793;55.388;37.844;2024-03-23T03:48:04;47.10;;;26.00;;
26014;SDS011;13793;55.388;37.844;2024-03-23T03:50:35;51.40;;;28.20;;
26014;SDS011;13793;55.388;37.844;2024-03-23T03:53:06;49.47;;;28.13;;
26014;SDS011;13793;55.388;37.844;2024-03-23T03:55:37;46.70;;;27.97;;
26014;SDS011;13793;55.388;37.844;2024-03-23T03:58:08;50.17;;;27.07;;
26014;SDS011;13793;55.388;37.844;2024-03-23T04:00:39;47.80;;;27.23;;
26014;SDS011;13793;55.388;37.844;2024-03-23T04:03:10;47.90;;;26.80;;
26014;SDS011;13793;55.388;37.844;2024-03-23T04:05:41;45.13;;;26.60;;
26014;SDS011;13793;55.388;37.844;2024-03-23T04:08:11;50.27;;;26.97;;
26014;SDS011;13793;55.388;37.844;2024-03-23T04:10:42;49.33;;;28.03;;
26014;SDS011;13793;55.388;37.844;2024-03-23T04:13:13;45.60;;;26.43;;
26014;SDS011;13793;55.388;37.844;2024-03-23T04:15:45;46.53;;;26.27;;
26014;SDS011;13793;55.388;37.844;2024-03-23T04:18:16;44.20;;;26.33;;
26014;SDS011;13793;55.388;37.844;2024-03-23T04:20:48;41.90;;;25.80;;
26014;SDS011;13793;55.388;37.844;2024-03-23T04:23:18;45.27;;;27.30;;
26014;SDS011;13793;55.388;37.844;2024-03-23T04:25:49;43.93;;;25.70;;
26014;SDS011;13793;55.388;37.844;2024-03-23T04:28:21;41.57;;;25.00;;
26014;SDS011;13793;55.388;37.844;2024-03-23T04:30:52;42.27;;;26.17;;
26014;SDS011;13793;55.388;37.844;2024-03-23T04:33:23;44.37;;;26.77;;
26014;SDS011;13793;55.388;37.844;2024-03-23T04:35:54;43.30;;;25.73;;
26014;SDS011;13793;55.388;37.844;2024-03-23T04:38:24;48.63;;;26.30;;
26014;SDS011;13793;55.388;37.844;2024-03-23T04:41:00;41.40;;;25.27;;
26014;SDS011;13793;55.388;37.844;2024-03-23T04:43:28;42.13;;;25.73;;
26014;SDS011;13793;55.388;37.844;2024-03-23T04:45:59;41.37;;;25.20;;
26014;SDS011;13793;55.388;37.844;2024-03-23T04:48:30;44.27;;;26.17;;
26014;SDS011;13793;55.388;37.844;2024-03-23T04:51:00;40.53;;;25.17;;
26014;SDS011;13793;55.388;37.844;2024-03-23T04:53:31;41.53;;;24.67;;
26014;SDS011;13793;55.388;37.844;2024-03-23T04:56:02;37.13;;;24.00;;
26014;SDS011;13793;55.388;37.844;2024-03-23T04:58:33;44.07;;;25.93;;
26014;SDS011;13793;55.388;37.844;2024-03-23T05:01:03;42.90;;;25.87;;
26014;SDS011;13793;55.388;37.844;2024-03-23T05:03:34;42.53;;;25.43;;
26014;SDS011;13793;55.388;37.844;2024-03-23T05:06:05;42.37;;;26.40;;
26014;SDS011;13793;55.388;37.844;2024-03-23T05:08:37;43.33;;;25.53;;
26014;SDS011;13793;55.388;37.844;2024-03-23T05:11:08;44.20;;;26.17;;
26014;SDS011;13793;55.388;37.844;2024-03-23T05:13:39;40.97;;;25.77;;
26014;SDS011;13793;55.388;37.844;2024-03-23T05:16:10;43.37;;;25.13;;
26014;SDS011;13793;55.388;37.844;2024-03-23T05:18:41;41.27;;;25.40;;
26014;SDS011;13793;55.388;37.844;2024-03-23T05:21:11;41.37;;;24.60;;
26014;SDS011;13793;55.388;37.844;2024-03-23T05:23:42;44.73;;;25.93;;
26014;SDS011;13793;55.388;37.844;2024-03-23T05:26:13;44.90;;;25.67;;
26014;SDS011;13793;55.388;37.844;2024-03-23T05:28:44;44.27;;;26.03;;
26014;SDS011;13793;55.388;37.844;2024-03-23T05:31:24;40.00;;;24.83;;
26014;SDS011;13793;55.388;37.844;2024-03-23T05:33:58;41.37;;;25.83;;
26014;SDS011;13793;55.388;37.844;2024-03-23T05:36:29;42.97;;;26.57;;
26014;SDS011;13793;55.388;37.844;2024-03-23T05:39:01;43.57;;;26.47;;
26014;SDS011;13793;55.388;37.844;2024-03-23T05:41:31;41.40;;;26.33;;
26014;SDS011;13793;55.388;37.844;2024-03-23T05:44:03;45.03;;;26.83;;
26014;SDS011;13793;55.388;37.844;2024-03-23T05:46:34;40.73;;;26.43;;
26014;SDS011;13793;55.388;37.844;2024-03-23T05:49:05;42.67;;;26.17;;
26014;SDS011;13793;55.388;37.844;2024-03-23T05:51:36;39.53;;;25.83;;
26014;SDS011;13793;55.388;37.844;2024-03-23T05:54:06;42.50;;;27.33;;
26014;SDS011;13793;55.388;37.844;2024-03-23T05:56:37;43.53;;;27.60;;
26014;SDS011;13793;55.388;37.844;2024-03-23T05:59:08;43.67;;;27.27;;
26014;SDS011;13793;55.388;37.844;2024-03-23T06:01:38;47.13;;;28.30;;
26014;SDS011;13793;55.388;37.844;2024-03-23T06:04:09;44.37;;;27.20;;
26014;SDS011;13793;55.388;37.844;2024-03-23T06:06:40;44.53;;;27.87;;
26014;SDS011;13793;55.388;37.844;2024-03-23T06:09:11;45.50;;;28.87;;
26014;SDS011;13793;55.388;37.844;2024-03-23T06:11:42;45.83;;;28.93;;
26014;SDS011;13793;55.388;37.844;2024-03-23T06:14:12;46.27;;;28.43;;
26014;SDS011;13793;55.388;37.844;2024-03-23T06:16:43;50.57;;;29.57;;
26014;SDS011;13793;55.388;37.844;2024-03-23T06:19:15;50.33;;;30.47;;
26014;SDS011;13793;55.388;37.844;2024-03-23T06:21:46;48.73;;;29.43;;
26014;SDS011;13793;55.388;37.844;2024-03-23T06:24:17;47.67;;;29.60;;
26014;SDS011;13793;55.388;37.844;2024-03-23T06:26:48;43.33;;;27.97;;
26014;SDS011;13793;55.388;37.844;2024-03-23T06:29:18;48.37;;;29.27;;
26014;SDS011;13793;55.388;37.844;2024-03-23T06:31:53;49.07;;;30.97;;
26014;SDS011;13793;55.388;37.844;2024-03-23T06:34:24;47.40;;;30.13;;
26014;SDS011;13793;55.388;37.844;2024-03-23T06:36:55;50.67;;;30.43;;
26014;SDS011;13793;55.388;37.844;2024-03-23T06:39:26;43.83;;;28.90;;
26014;SDS011;13793;55.388;37.844;2024-03-23T06:41:57;50.60;;;29.70;;
26014;SDS011;13793;55.388;37.844;2024-03-23T06:44:27;49.90;;;30.83;;
26014;SDS011;13793;55.388;37.844;2024-03-23T06:46:58;50.83;;;31.27;;
26014;SDS011;13793;55.388;37.844;2024-03-23T06:49:29;52.90;;;30.07;;
26014;SDS011;13793;55.388;37.844;2024-03-23T06:52:00;45.10;;;28.63;;
26014;SDS011;13793;55.388;37.844;2024-03-23T06:54:31;47.97;;;29.93;;
26014;SDS011;13793;55.388;37.844;2024-03-23T06:57:02;45.60;;;28.87;;
26014;SDS011;13793;55.388;37.844;2024-03-23T06:59:33;48.40;;;29.67;;
26014;SDS011;13793;55.388;37.844;2024-03-23T07:02:05;46.97;;;29.83;;
26014;SDS011;13793;55.388;37.844;2024-03-23T07:04:38;42.97;;;27.90;;
26014;SDS011;13793;55.388;37.844;2024-03-23T07:07:10;42.33;;;27.77;;
26014;SDS011;13793;55.388;37.844;2024-03-23T07:09:40;42.60;;;27.40;;
26014;SDS011;13793;55.388;37.844;2024-03-23T07:12:11;40.53;;;27.87;;
26014;SDS011;13793;55.388;37.844;2024-03-23T07:14:42;43.40;;;28.93;;
26014;SDS011;13793;55.388;37.844;2024-03-23T07:17:14;42.93;;;27.40;;
26014;SDS011;13793;55.388;37.844;2024-03-23T07:19:46;43.37;;;28.17;;
26014;SDS011;13793;55.388;37.844;2024-03-23T07:22:16;39.07;;;25.63;;
26014;SDS011;13793;55.388;37.844;2024-03-23T07:24:47;42.37;;;27.87;;
26014;SDS011;13793;55.388;37.844;2024-03-23T07:27:18;45.13;;;30.33;;
26014;SDS011;13793;55.388;37.844;2024-03-23T07:29:49;47.23;;;28.87;;
26014;SDS011;13793;55.388;37.844;2024-03-23T07:32:20;47.33;;;29.80;;
26014;SDS011;13793;55.388;37.844;2024-03-23T07:34:51;47.53;;;30.03;;
26014;SDS011;13793;55.388;37.844;2024-03-23T07:37:22;47.77;;;31.10;;
26014;SDS011;13793;55.388;37.844;2024-03-23T07:39:54;49.77;;;31.43;;
26014;SDS011;13793;55.388;37.844;2024-03-23T07:42:26;49.27;;;30.93;;
26014;SDS011;13793;55.388;37.844;2024-03-23T07:44:57;47.60;;;29.87;;
26014;SDS011;13793;55.388;37.844;2024-03-23T07:47:29;44.03;;;28.40;;
26014;SDS011;13793;55.388;37.844;2024-03-23T07:50:00;44.20;;;29.03;;
26014;SDS011;13793;55.388;37.844;2024-03-23T07:52:30;44.57;;;29.37;;
26014;SDS011;13793;55.388;37.844;2024-03-23T07:55:01;45.37;;;27.90;;
26014;SDS011;13793;55.388;37.844;2024-03-23T07:57:32;42.37;;;28.30;;
26014;SDS011;13793;55.388;37.844;2024-03-23T08:00:03;46.40;;;29.70;;
26014;SDS011;13793;55.388;37.844;2024-03-23T08:02:34;43.50;;;28.30;;
26014;SDS011;13793;55.388;37.844;2024-03-23T08:05:05;42.03;;;27.27;;
26014;SDS011;13793;55.388;37.844;2024-03-23T08:07:36;40.03;;;27.03;;
26014;SDS011;13793;55.388;37.844;2024-03-23T08:10:07;44.43;;;28.07;;
26014;SDS011;13793;55.388;37.844;2024-03-23T08:12:38;40.37;;;27.03;;
26014;SDS011;13793;55.388;37.844;2024-03-23T08:15:09;39.33;;;26.53;;
26014;SDS011;13793;55.388;37.844;2024-03-23T08:17:40;40.47;;;26.20;;
26014;SDS011;13793;55.388;37.844;2024-03-23T08:20:12;38.20;;;25.77;;
26014;SDS011;13793;55.388;37.844;2024-03-23T08:22:42;37.67;;;25.57;;
26014;SDS011;13793;55.388;37.844;2024-03-23T08:25:13;41.30;;;26.30;;
26014;SDS011;13793;55.388;37.844;2024-03-23T08:27:45;36.50;;;24.00;;
26014;SDS011;13793;55.388;37.844;2024-03-23T08:30:15;36.87;;;24.40;;
26014;SDS011;13793;55.388;37.844;2024-03-23T08:32:47;35.70;;;24.10;;
26014;SDS011;13793;55.388;37.844;2024-03-23T08:35:18;35.60;;;23.20;;
26014;SDS011;13793;55.388;37.844;2024-03-23T08:37:48;35.47;;;23.87;;
26014;SDS011;13793;55.388;37.844;2024-03-23T08:40:19;38.23;;;23.87;;
26014;SDS011;13793;55.388;37.844;2024-03-23T08:42:50;37.07;;;23.67;;
26014;SDS011;13793;55.388;37.844;2024-03-23T08:45:21;33.37;;;22.83;;
26014;SDS011;13793;55.388;37.844;2024-03-23T08:47:52;35.70;;;23.93;;
26014;SDS011;13793;55.388;37.844;2024-03-23T08:50:23;40.67;;;25.67;;
26014;SDS011;13793;55.388;37.844;2024-03-23T08:52:54;34.97;;;23.83;;
26014;SDS011;13793;55.388;37.844;2024-03-23T08:55:25;29.47;;;21.17;;
26014;SDS011;13793;55.388;37.844;2024-03-23T08:57:56;30.97;;;21.87;;
26014;SDS011;13793;55.388;37.844;2024-03-23T09:00:26;30.37;;;21.43;;
26014;SDS011;13793;55.388;37.844;2024-03-23T09:02:57;32.03;;;19.73;;
26014;SDS011;13793;55.388;37.844;2024-03-23T09:05:28;28.53;;;20.13;;
26014;SDS011;13793;55.388;37.844;2024-03-23T09:08:00;27.77;;;18.67;;
26014;SDS011;13793;55.388;37.844;2024-03-23T09:10:31;26.63;;;17.80;;
26014;SDS011;13793;55.388;37.844;2024-03-23T09:13:02;26.17;;;17.97;;
26014;SDS011;13793;55.388;37.844;2024-03-23T09:15:34;27.43;;;20.10;;
26014;SDS011;13793;55.388;37.844;2024-03-23T09:18:05;25.50;;;18.27;;
26014;SDS011;13793;55.388;37.844;2024-03-23T09:20:36;27.30;;;19.27;;
26014;SDS011;13793;55.388;37.844;2024-03-23T09:23:07;27.07;;;18.67;;
26014;SDS011;13793;55.388;37.844;2024-03-23T09:25:39;22.97;;;17.67;;
26014;SDS011;13793;55.388;37.844;2024-03-23T09:28:09;25.17;;;18.27;;
26014;SDS011;13793;55.388;37.844;2024-03-23T09:30:40;25.57;;;16.70;;
26014;SDS011;13793;55.388;37.844;2024-03-23T09:33:12;23.63;;;17.43;;
26014;SDS011;13793;55.388;37.844;2024-03-23T09:35:43;22.43;;;16.43;;
26014;SDS011;13793;55.388;37.844;2024-03-23T09:38:15;24.13;;;17.53;;
26014;SDS011;13793;55.388;37.844;2024-03-23T09:40:46;23.57;;;16.90;;
26014;SDS011;13793;55.388;37.844;2024-03-23T09:43:20;25.43;;;18.10;;
26014;SDS011;13793;55.388;37.844;2024-03-23T09:45:51;23.57;;;17.20;;
26014;SDS011;13793;55.388;37.844;2024-03-23T09:48:22;21.37;;;15.70;;
26014;SDS011;13793;55.388;37.844;2024-03-23T09:50:53;19.90;;;15.90;;
26014;SDS011;13793;55.388;37.844;2024-03-23T09:53:24;22.40;;;16.07;;
26014;SDS011;13793;55.388;37.844;2024-03-23T09:55:55;21.43;;;16.20;;
26014;SDS011;13793;55.388;37.844;2024-03-23T09:58:25;20.70;;;15.90;;
26014;SDS011;13793;55.388;37.844;2024-03-23T10:00:56;22.03;;;15.70;;
26014;SDS011;13793;55.388;37.844;2024-03-23T10:03:27;19.47;;;14.73;;
26014;SDS011;13793;55.388;37.844;2024-03-23T10:06:01;20.20;;;15.57;;
26014;SDS011;13793;55.388;37.844;2024-03-23T10:08:33;19.20;;;15.30;;
26014;SDS011;13793;55.388;37.844;2024-03-23T10:11:16;19.07;;;14.97;;
26014;SDS011;13793;55.388;37.844;2024-03-23T10:13:44;18.40;;;14.13;;
26014;SDS011;13793;55.388;37.844;2024-03-23T10:16:22;18.37;;;14.10;;
26014;SDS011;13793;55.388;37.844;2024-03-23T10:18:55;19.45;;;14.07;;
26014;SDS011;13793;55.388;37.844;2024-03-23T10:21:26;19.17;;;14.60;;
26014;SDS011;13793;55.388;37.844;2024-03-23T10:23:56;18.23;;;14.03;;
26014;SDS011;13793;55.388;37.844;2024-03-23T10:26:29;18.77;;;13.50;;
26014;SDS011;13793;55.388;37.844;2024-03-23T10:29:00;17.33;;;13.50;;
26014;SDS011;13793;55.388;37.844;2024-03-23T10:31:33;17.83;;;13.30;;
26014;SDS011;13793;55.388;37.844;2024-03-23T10:34:08;19.87;;;13.73;;
26014;SDS011;13793;55.388;37.844;2024-03-23T10:36:38;20.43;;;15.10;;
26014;SDS011;13793;55.388;37.844;2024-03-23T10:39:09;18.40;;;13.90;;
26014;SDS011;13793;55.388;37.844;2024-03-23T10:41:41;21.10;;;15.83;;
26014;SDS011;13793;55.388;37.844;2024-03-23T10:44:11;24.23;;;16.13;;
26014;SDS011;13793;55.388;37.844;2024-03-23T10:46:43;21.27;;;16.03;;
26014;SDS011;13793;55.388;37.844;2024-03-23T10:49:14;22.57;;;16.03;;
26014;SDS011;13793;55.388;37.844;2024-03-23T10:51:45;23.70;;;17.63;;
26014;SDS011;13793;55.388;37.844;2024-03-23T10:54:16;22.03;;;16.90;;
26014;SDS011;13793;55.388;37.844;2024-03-23T10:56:46;26.93;;;18.20;;
26014;SDS011;13793;55.388;37.844;2024-03-23T10:59:18;21.73;;;16.50;;
26014;SDS011;13793;55.388;37.844;2024-03-23T11:01:56;20.13;;;15.73;;
26014;SDS011;13793;55.388;37.844;2024-03-23T11:07:03;23.07;;;16.83;;
26014;SDS011;13793;55.388;37.844;2024-03-23T11:09:42;24.53;;;16.43;;
26014;SDS011;13793;55.388;37.844;2024-03-23T11:15:05;24.67;;;17.73;;
26014;SDS011;13793;55.388;37.844;2024-03-23T11:17:38;23.93;;;17.57;;
26014;SDS011;13793;55.388;37.844;2024-03-23T11:20:09;24.90;;;17.93;;
26014;SDS011;13793;55.388;37.844;2024-03-23T11:22:45;27.60;;;18.80;;
26014;SDS011;13793;55.388;37.844;2024-03-23T11:25:24;26.40;;;18.13;;
26014;SDS011;13793;55.388;37.844;2024-03-23T11:27:51;25.53;;;18.23;;
26014;SDS011;13793;55.388;37.844;2024-03-23T11:30:28;28.57;;;19.10;;
26014;SDS011;13793;55.388;37.844;2024-03-23T11:32:59;25.97;;;18.73;;
26014;SDS011;13793;55.388;37.844;2024-03-23T11:35:33;27.83;;;19.30;;
26014;SDS011;13793;55.388;37.844;2024-03-23T11:40:50;30.10;;;19.30;;
26014;SDS011;13793;55.388;37.844;2024-03-23T11:43:21;27.50;;;18.80;;
26014;SDS011;13793;55.388;37.844;2024-03-23T11:45:53;30.53;;;20.33;;
26014;SDS011;13793;55.388;37.844;2024-03-23T11:48:24;31.00;;;21.03;;
26014;SDS011;13793;55.388;37.844;2024-03-23T11:50:56;32.27;;;20.73;;
26014;SDS011;13793;55.388;37.844;2024-03-23T11:53:27;31.97;;;21.37;;
26014;SDS011;13793;55.388;37.844;2024-03-23T11:55:59;32.83;;;21.70;;
26014;SDS011;13793;55.388;37.844;2024-03-23T11:58:30;30.93;;;20.83;;
26014;SDS011;13793;55.388;37.844;2024-03-23T12:01:02;33.23;;;22.30;;
26014;SDS011;13793;55.388;37.844;2024-03-23T12:03:33;34.90;;;22.00;;
26014;SDS011;13793;55.388;37.844;2024-03-23T12:06:05;35.77;;;23.50;;
26014;SDS011;13793;55.388;37.844;2024-03-23T12:08:36;32.63;;;22.10;;
26014;SDS011;13793;55.388;37.844;2024-03-23T12:11:14;33.47;;;23.03;;
26014;SDS011;13793;55.388;37.844;2024-03-23T12:13:45;37.90;;;23.57;;
26014;SDS011;13793;55.388;37.844;2024-03-23T12:16:18;31.43;;;21.67;;
26014;SDS011;13793;55.388;37.844;2024-03-23T12:18:49;36.03;;;22.93;;
26014;SDS011;13793;55.388;37.844;2024-03-23T12:21:21;35.03;;;21.83;;
26014;SDS011;13793;55.388;37.844;2024-03-23T12:23:52;40.73;;;23.97;;
26014;SDS011;13793;55.388;37.844;2024-03-23T12:26:22;49.67;;;29.07;;
26014;SDS011;13793;55.388;37.844;2024-03-23T12:28:53;45.97;;;26.90;;
26014;SDS011;13793;55.388;37.844;2024-03-23T12:31:23;67.37;;;33.10;;
26014;SDS011;13793;55.388;37.844;2024-03-23T12:33:55;43.73;;;25.87;;
26014;SDS011;13793;55.388;37.844;2024-03-23T12:36:26;37.90;;;23.70;;
26014;SDS011;13793;55.388;37.844;2024-03-23T12:38:56;42.67;;;25.93;;
26014;SDS011;13793;55.388;37.844;2024-03-23T12:41:27;40.23;;;26.03;;
26014;SDS011;13793;55.388;37.844;2024-03-23T12:43:57;43.00;;;25.27;;
26014;SDS011;13793;55.388;37.844;2024-03-23T12:46:29;40.00;;;24.57;;
26014;SDS011;13793;55.388;37.844;2024-03-23T12:49:00;42.60;;;26.67;;
26014;SDS011;13793;55.388;37.844;2024-03-23T12:51:30;42.57;;;27.20;;
26014;SDS011;13793;55.388;37.844;2024-03-23T12:54:01;39.07;;;25.90;;
26014;SDS011;13793;55.388;37.844;2024-03-23T12:56:33;41.77;;;25.33;;
26014;SDS011;13793;55.388;37.844;2024-03-23T12:59:04;42.43;;;26.07;;
26014;SDS011;13793;55.388;37.844;2024-03-23T13:01:35;52.03;;;28.33;;
26014;SDS011;13793;55.388;37.844;2024-03-23T13:04:09;48.23;;;28.07;;
26014;SDS011;13793;55.388;37.844;2024-03-23T13:06:40;46.43;;;26.80;;
26014;SDS011;13793;55.388;37.844;2024-03-23T13:09:10;47.03;;;28.67;;
26014;SDS011;13793;55.388;37.844;2024-03-23T13:11:41;43.70;;;27.63;;
26014;SDS011;13793;55.388;37.844;2024-03-23T13:14:12;42.60;;;26.53;;
26014;SDS011;13793;55.388;37.844;2024-03-23T13:16:44;45.57;;;27.53;;
26014;SDS011;13793;55.388;37.844;2024-03-23T13:19:15;46.63;;;27.50;;
26014;SDS011;13793;55.388;37.844;2024-03-23T13:21:48;48.70;;;26.30;;
26014;SDS011;13793;55.388;37.844;2024-03-23T13:24:21;40.83;;;25.50;;
26014;SDS011;13793;55.388;37.844;2024-03-23T13:26:53;44.53;;;26.70;;
26014;SDS011;13793;55.388;37.844;2024-03-23T13:29:24;43.10;;;25.43;;
26014;SDS011;13793;55.388;37.844;2024-03-23T13:31:55;39.37;;;24.67;;
26014;SDS011;13793;55.388;37.844;2024-03-23T13:34:26;45.80;;;26.03;;
26014;SDS011;13793;55.388;37.844;2024-03-23T13:36:58;43.43;;;25.20;;
26014;SDS011;13793;55.388;37.844;2024-03-23T13:39:28;41.57;;;26.03;;
26014;SDS011;13793;55.388;37.844;2024-03-23T13:42:00;43.20;;;25.70;;
26014;SDS011;13793;55.388;37.844;2024-03-23T13:44:32;41.57;;;27.07;;
26014;SDS011;13793;55.388;37.844;2024-03-23T13:47:03;43.57;;;27.00;;
26014;SDS011;13793;55.388;37.844;2024-03-23T13:49:34;46.73;;;25.80;;
26014;SDS011;13793;55.388;37.844;2024-03-23T13:52:05;43.93;;;25.60;;
26014;SDS011;13793;55.388;37.844;2024-03-23T13:54:36;47.40;;;27.30;;
26014;SDS011;13793;55.388;37.844;2024-03-23T13:57:07;48.37;;;26.73;;
26014;SDS011;13793;55.388;37.844;2024-03-23T13:59:39;78.33;;;36.47;;
26014;SDS011;13793;55.388;37.844;2024-03-23T14:02:09;52.17;;;28.93;;
26014;SDS011;13793;55.388;37.844;2024-03-23T14:04:42;47.80;;;28.07;;
26014;SDS011;13793;55.388;37.844;2024-03-23T14:07:13;42.53;;;26.77;;
26014;SDS011;13793;55.388;37.844;2024-03-23T14:09:45;45.93;;;25.97;;
26014;SDS011;13793;55.388;37.844;2024-03-23T14:12:16;43.77;;;26.47;;
26014;SDS011;13793;55.388;37.844;2024-03-23T14:14:47;45.03;;;26.43;;
26014;SDS011;13793;55.388;37.844;2024-03-23T14:17:18;45.10;;;26.67;;
26014;SDS011;13793;55.388;37.844;2024-03-23T14:19:49;46.13;;;28.63;;
26014;SDS011;13793;55.388;37.844;2024-03-23T14:22:20;47.93;;;27.73;;
26014;SDS011;13793;55.388;37.844;2024-03-23T14:24:52;46.40;;;26.63;;
26014;SDS011;13793;55.388;37.844;2024-03-23T14:27:23;41.63;;;24.73;;
26014;SDS011;13793;55.388;37.844;2024-03-23T14:29:54;45.17;;;25.93;;
26014;SDS011;13793;55.388;37.844;2024-03-23T14:32:24;41.20;;;24.83;;
26014;SDS011;13793;55.388;37.844;2024-03-23T14:34:55;44.63;;;26.33;;
26014;SDS011;13793;55.388;37.844;2024-03-23T14:37:26;60.20;;;33.73;;
26014;SDS011;13793;55.388;37.844;2024-03-23T14:39:57;55.07;;;30.40;;
26014;SDS011;13793;55.388;37.844;2024-03-23T14:42:29;52.83;;;30.53;;
26014;SDS011;13793;55.388;37.844;2024-03-23T14:45:03;50.10;;;29.17;;
26014;SDS011;13793;55.388;37.844;2024-03-23T14:47:36;44.23;;;27.43;;
26014;SDS011;13793;55.388;37.844;2024-03-23T14:50:07;43.83;;;26.50;;
26014;SDS011;13793;55.388;37.844;2024-03-23T14:52:39;52.57;;;27.70;;
26014;SDS011;13793;55.388;37.844;2024-03-23T14:55:11;46.80;;;27.60;;
26014;SDS011;13793;55.388;37.844;2024-03-23T14:57:42;40.77;;;24.20;;
26014;SDS011;13793;55.388;37.844;2024-03-23T15:00:16;46.20;;;27.60;;
26014;SDS011;13793;55.388;37.844;2024-03-23T15:02:47;53.10;;;32.43;;
26014;SDS011;13793;55.388;37.844;2024-03-23T15:05:18;51.83;;;29.43;;
26014;SDS011;13793;55.388;37.844;2024-03-23T15:07:49;51.57;;;30.23;;
26014;SDS011;13793;55.388;37.844;2024-03-23T15:10:20;48.83;;;28.47;;
26014;SDS011;13793;55.388;37.844;2024-03-23T15:12:51;44.90;;;27.43;;
26014;SDS011;13793;55.388;37.844;2024-03-23T15:15:25;46.73;;;27.93;;
26014;SDS011;13793;55.388;37.844;2024-03-23T15:17:56;51.33;;;28.10;;
26014;SDS011;13793;55.388;37.844;2024-03-23T15:20:27;44.77;;;26.97;;
26014;SDS011;13793;55.388;37.844;2024-03-23T15:22:57;47.93;;;28.90;;
26014;SDS011;13793;55.388;37.844;2024-03-23T15:25:28;55.27;;;31.47;;
26014;SDS011;13793;55.388;37.844;2024-03-23T15:28:00;55.47;;;30.93;;
26014;SDS011;13793;55.388;37.844;2024-03-23T15:30:31;55.17;;;32.00;;